createdAt,value
2018-05-25T00:01:26.739Z,101441.43
2018-05-25T00:03:54.389Z,101446.51
2018-05-25T00:06:21.913Z,101389.63
2018-05-25T00:08:49.435Z,101451.59
2018-05-25T00:11:16.998Z,101517.61
2018-05-25T00:13:44.526Z,101458.70
2018-05-25T00:16:12.050Z,101479.02
2018-05-25T00:18:40.006Z,101506.44
2018-05-25T00:21:07.539Z,101384.55
2018-05-25T00:23:35.067Z,101435.34
2018-05-25T00:26:02.609Z,101543.00
2018-05-25T00:28:30.125Z,101530.81
2018-05-25T00:30:57.709Z,101489.17
2018-05-25T00:33:25.238Z,101563.32
2018-05-25T00:35:52.762Z,101558.23
2018-05-25T00:38:20.320Z,101482.06
2018-05-25T00:40:47.854Z,101554.17
2018-05-25T00:43:15.448Z,101489.17
2018-05-25T00:45:42.978Z,101444.48
2018-05-25T00:48:10.501Z,101504.41
2018-05-25T00:50:38.051Z,101429.24
2018-05-25T00:53:05.569Z,101480.03
2018-05-25T00:55:39.822Z,101485.11
2018-05-25T00:58:07.338Z,101547.06
2018-05-25T01:00:34.917Z,101538.94
2018-05-25T01:03:02.540Z,101687.23
2018-05-25T01:05:30.077Z,101730.92
2018-05-25T01:07:57.625Z,101583.63
2018-05-25T01:10:25.149Z,101592.77
2018-05-25T01:12:52.690Z,101734.98
2018-05-25T01:15:20.213Z,101703.50
2018-05-25T01:17:47.771Z,101698.41
2018-05-25T01:20:15.290Z,101712.63
2018-05-25T01:22:42.838Z,101790.85
2018-05-25T01:25:10.395Z,101733.97
2018-05-25T01:27:38.391Z,101720.77
2018-05-25T01:30:05.909Z,101789.84
2018-05-25T01:32:33.431Z,101774.60
2018-05-25T01:35:00.974Z,101719.75
2018-05-25T01:37:28.493Z,101749.20
2018-05-25T01:39:56.449Z,101791.87
2018-05-25T01:42:23.965Z,101701.46
2018-05-25T01:44:51.826Z,101691.30
2018-05-25T01:47:19.489Z,101707.56
2018-05-25T01:49:47.011Z,101708.58
2018-05-25T01:52:14.529Z,101762.41
2018-05-25T01:54:42.088Z,101719.75
2018-05-25T01:57:09.631Z,101731.94
2018-05-25T01:59:37.174Z,101721.78
2018-05-25T02:02:04.705Z,101705.53
2018-05-25T02:04:32.245Z,101709.59
2018-05-25T02:06:59.761Z,101713.65
2018-05-25T02:09:27.426Z,101741.08
2018-05-25T02:11:54.954Z,101725.84
2018-05-25T02:14:22.469Z,101762.41
2018-05-25T02:16:50.015Z,101721.78
2018-05-25T02:19:17.545Z,101698.41
2018-05-25T02:21:45.113Z,101762.41
2018-05-25T02:24:12.633Z,101811.17
2018-05-25T02:26:40.161Z,101828.44
2018-05-25T02:29:08.129Z,101734.98
2018-05-25T02:31:35.646Z,101722.80
2018-05-25T02:34:03.166Z,101819.30
2018-05-25T02:36:30.705Z,101865.01
2018-05-25T02:38:58.260Z,101869.07
2018-05-25T02:41:25.805Z,101898.53
2018-05-25T02:43:53.557Z,101809.14
2018-05-25T02:46:21.081Z,101788.82
2018-05-25T02:48:48.611Z,101689.27
2018-05-25T02:51:16.150Z,101707.56
2018-05-25T02:53:43.706Z,101706.55
2018-05-25T02:56:12.094Z,101688.25
2018-05-25T02:58:39.622Z,101721.78
2018-05-25T03:01:07.197Z,101713.65
2018-05-25T03:03:34.723Z,101754.28
2018-05-25T03:06:02.241Z,101733.97
2018-05-25T03:08:29.805Z,101817.27
2018-05-25T03:10:57.354Z,101732.95
2018-05-25T03:13:24.868Z,101785.77
2018-05-25T03:15:52.636Z,101697.40
2018-05-25T03:18:20.182Z,101798.98
2018-05-25T03:20:47.850Z,101700.45
2018-05-25T03:23:15.379Z,101738.03
2018-05-25T03:25:42.931Z,101755.30
2018-05-25T03:28:10.506Z,101696.38
2018-05-25T03:30:38.021Z,101644.58
2018-05-25T03:33:05.537Z,101739.05
2018-05-25T03:35:33.077Z,101711.62
2018-05-25T03:38:00.604Z,101635.44
2018-05-25T03:40:28.182Z,101695.37
2018-05-25T03:42:55.726Z,101777.65
2018-05-25T03:45:23.249Z,101838.59
2018-05-25T03:47:50.798Z,101811.17
2018-05-25T03:50:18.337Z,101850.78
2018-05-25T03:52:45.859Z,101712.63
2018-05-25T03:55:13.468Z,101620.20
2018-05-25T03:57:40.994Z,101540.97
2018-05-25T04:00:20.441Z,101681.14
2018-05-25T04:02:47.957Z,101621.22
2018-05-25T04:05:15.481Z,101663.87
2018-05-25T04:07:43.021Z,101533.86
2018-05-25T04:10:10.571Z,101659.81
2018-05-25T04:12:38.090Z,101625.28
2018-05-25T04:15:05.637Z,101636.45
2018-05-25T04:17:33.190Z,101657.78
2018-05-25T04:20:00.733Z,101537.92
2018-05-25T04:22:28.298Z,101485.11
2018-05-25T04:24:55.822Z,101511.52
2018-05-25T04:27:23.347Z,101463.78
2018-05-25T04:29:50.890Z,101552.14
2018-05-25T04:32:18.414Z,101572.45
2018-05-25T04:34:46.338Z,101507.45
2018-05-25T04:37:13.872Z,101581.60
2018-05-25T04:39:41.419Z,101624.27
2018-05-25T04:42:09.065Z,101604.97
2018-05-25T04:44:36.594Z,101649.66
2018-05-25T04:47:04.113Z,101611.06
2018-05-25T04:49:31.654Z,101639.50
2018-05-25T04:51:59.193Z,101717.72
2018-05-25T04:54:26.742Z,101680.13
2018-05-25T04:56:54.335Z,101625.28
2018-05-25T04:59:21.867Z,101703.50
2018-05-25T05:01:49.395Z,101661.84
2018-05-25T05:04:16.966Z,101725.84
2018-05-25T05:06:44.833Z,101765.45
2018-05-25T05:09:12.354Z,101642.55
2018-05-25T05:11:39.887Z,101702.48
2018-05-25T05:14:07.442Z,101741.08
2018-05-25T05:16:34.961Z,101660.83
2018-05-25T05:19:02.513Z,101689.27
2018-05-25T05:21:30.033Z,101673.02
2018-05-25T05:23:57.615Z,101714.66
2018-05-25T05:26:25.157Z,101704.52
2018-05-25T05:28:52.674Z,101660.83
2018-05-25T05:31:20.218Z,101682.16
2018-05-25T05:33:47.745Z,101731.94
2018-05-25T05:36:15.294Z,101614.11
2018-05-25T05:38:42.861Z,101553.16
2018-05-25T05:41:10.377Z,101557.22
2018-05-25T05:43:37.894Z,101488.16
2018-05-25T05:46:05.441Z,101471.91
2018-05-25T05:48:32.962Z,101461.74
2018-05-25T05:51:00.534Z,101478.00
2018-05-25T05:53:28.050Z,101301.27
2018-05-25T05:55:55.569Z,101445.49
2018-05-25T05:58:23.124Z,101472.91
2018-05-25T06:00:50.655Z,101449.56
2018-05-25T06:03:18.213Z,101337.83
2018-05-25T06:05:45.766Z,101315.48
2018-05-25T06:08:13.316Z,101391.66
2018-05-25T06:10:40.838Z,101482.06
2018-05-25T06:13:08.399Z,101350.02
2018-05-25T06:15:35.945Z,101300.25
2018-05-25T06:18:03.460Z,101388.61
2018-05-25T06:20:31.178Z,101336.81
2018-05-25T06:22:58.700Z,101304.31
2018-05-25T06:25:26.256Z,101368.30
2018-05-25T06:27:54.202Z,101260.64
2018-05-25T06:30:21.722Z,101154.00
2018-05-25T06:32:49.252Z,101219.00
2018-05-25T06:35:16.803Z,101160.09
2018-05-25T06:37:44.320Z,101275.88
2018-05-25T06:40:11.876Z,101328.69
2018-05-25T06:42:39.392Z,101313.45
2018-05-25T06:45:07.048Z,101203.77
2018-05-25T06:47:34.575Z,101174.31
2018-05-25T06:50:02.101Z,101206.81
2018-05-25T06:52:29.658Z,101211.89
2018-05-25T06:54:57.208Z,101118.45
2018-05-25T06:57:24.754Z,101098.14
2018-05-25T06:59:52.273Z,101149.93
2018-05-25T07:02:20.234Z,101319.55
2018-05-25T07:04:47.758Z,101040.25
2018-05-25T07:07:15.357Z,101099.16
2018-05-25T07:09:42.896Z,101142.83
2018-05-25T07:12:10.466Z,101039.23
2018-05-25T07:14:37.994Z,101239.31
2018-05-25T07:17:05.578Z,101170.25
2018-05-25T07:19:33.105Z,101005.72
2018-05-25T07:22:00.695Z,100836.12
2018-05-25T07:24:28.211Z,100933.61
2018-05-25T07:26:55.791Z,100913.30
2018-05-25T07:29:23.310Z,100748.78
2018-05-25T07:31:50.829Z,100649.27
2018-05-25T07:34:18.374Z,100726.44
2018-05-25T07:36:45.889Z,100600.52
2018-05-25T07:39:13.451Z,100727.45
2018-05-25T07:41:40.977Z,100522.33
2018-05-25T07:44:08.526Z,100602.55
2018-05-25T07:46:36.059Z,100575.14
2018-05-25T07:49:03.605Z,100676.69
2018-05-25T07:51:31.130Z,100715.27
2018-05-25T07:53:59.065Z,100555.84
2018-05-25T07:56:26.582Z,100584.27
2018-05-25T07:58:54.101Z,100441.09
2018-05-25T08:01:21.660Z,100621.84
2018-05-25T08:03:49.182Z,100629.97
2018-05-25T08:06:16.745Z,100456.33
2018-05-25T08:08:44.281Z,100506.09
2018-05-25T08:11:11.825Z,100567.02
2018-05-25T08:13:39.402Z,100319.25
2018-05-25T08:16:06.935Z,100360.88
2018-05-25T08:18:34.466Z,100262.39
2018-05-25T08:21:02.015Z,100141.56
2018-05-25T08:23:29.544Z,100102.98
2018-05-25T08:25:57.102Z,100084.70
2018-05-25T08:28:24.623Z,99874.54
2018-05-25T08:30:52.610Z,100026.83
2018-05-25T08:33:20.138Z,99871.50
2018-05-25T08:35:47.657Z,99821.75
2018-05-25T08:38:15.197Z,99414.66
2018-05-25T08:40:42.733Z,99976.06
2018-05-25T08:43:10.283Z,99657.28
2018-05-25T08:45:37.814Z,98979.20
2018-05-25T08:48:05.574Z,99710.07
2018-05-25T08:50:33.089Z,99680.63
2018-05-25T08:53:00.622Z,99564.91
2018-05-25T08:55:28.169Z,99331.42
2018-05-25T08:57:55.867Z,99427.86
2018-05-25T09:00:23.397Z,98994.42
2018-05-25T09:02:50.922Z,98933.52
2018-05-25T09:05:18.462Z,98663.55
2018-05-25T09:07:45.997Z,98691.97
2018-05-25T09:10:13.546Z,98465.66
2018-05-25T09:12:41.288Z,98376.34
2018-05-25T09:15:09.081Z,98947.73
2018-05-25T09:17:36.596Z,99035.02
2018-05-25T09:20:04.113Z,99191.34
2018-05-25T09:22:31.657Z,99038.07
2018-05-25T09:24:59.178Z,98549.88
2018-05-25T09:27:26.726Z,98777.22
2018-05-25T09:29:54.259Z,98743.73
2018-05-25T09:32:22.315Z,99049.23
2018-05-25T09:34:49.829Z,98757.94
2018-05-25T09:37:17.355Z,98800.56
2018-05-25T09:39:44.904Z,99169.01
2018-05-25T09:42:12.430Z,99172.05
2018-05-25T09:44:39.968Z,99136.53
2018-05-25T09:47:07.540Z,98551.91
2018-05-25T09:49:35.058Z,98887.85
2018-05-25T09:52:02.595Z,98757.94
2018-05-25T09:54:30.137Z,98044.52
2018-05-25T09:57:01.462Z,97930.88
2018-05-25T09:59:29.159Z,98837.10
2018-05-25T10:01:56.673Z,98399.69
2018-05-25T10:04:24.201Z,98584.39
2018-05-25T10:06:51.771Z,98818.84
2018-05-25T10:09:19.293Z,98179.48
2018-05-25T10:11:46.847Z,98472.75
2018-05-25T10:14:14.370Z,98544.81
2018-05-25T10:16:41.894Z,98703.13
2018-05-25T10:19:09.433Z,98374.31
2018-05-25T10:21:36.988Z,98292.12
2018-05-25T10:24:04.515Z,98348.95
2018-05-25T10:26:32.506Z,98449.41
2018-05-25T10:29:00.021Z,98669.64
2018-05-25T10:31:27.542Z,98502.19
2018-05-25T10:33:55.081Z,98486.96
2018-05-25T10:36:22.602Z,98520.45
2018-05-25T10:38:50.152Z,98774.18
2018-05-25T10:41:17.718Z,98915.26
2018-05-25T10:43:45.234Z,98738.66
2018-05-25T10:46:12.758Z,98621.94
2018-05-25T10:48:40.322Z,98463.63
2018-05-25T10:51:07.846Z,97907.53
2018-05-25T10:53:35.406Z,97846.66
2018-05-25T10:56:02.981Z,98266.75
2018-05-25T10:58:30.470Z,98220.06
2018-05-25T11:00:58.020Z,98153.09
2018-05-25T11:03:25.569Z,98542.78
2018-05-25T11:05:53.108Z,98340.83
2018-05-25T11:08:20.630Z,98343.88
2018-05-25T11:10:48.175Z,98113.52
2018-05-25T11:13:15.689Z,97693.44
2018-05-25T11:15:43.244Z,97745.19
2018-05-25T11:18:10.838Z,97691.41
2018-05-25T11:20:38.353Z,97866.95
2018-05-25T11:23:05.878Z,97367.77
2018-05-25T11:25:33.427Z,97096.90
2018-05-25T11:28:00.971Z,97903.47
2018-05-25T11:30:28.495Z,98204.84
2018-05-25T11:32:56.037Z,98112.50
2018-05-25T11:35:23.577Z,98024.22
2018-05-25T11:37:51.099Z,97961.31
2018-05-25T11:40:18.987Z,97750.27
2018-05-25T11:42:46.509Z,97633.58
2018-05-25T11:45:14.031Z,97728.95
2018-05-25T11:47:41.588Z,97658.95
2018-05-25T11:50:09.168Z,97746.20
2018-05-25T11:52:36.858Z,97637.64
2018-05-25T11:55:04.376Z,97669.09
2018-05-25T11:57:31.979Z,97684.31
2018-05-25T11:59:59.888Z,97607.20
2018-05-25T12:02:27.402Z,97535.16
2018-05-25T12:04:54.924Z,97611.26
2018-05-25T12:07:22.497Z,97641.70
2018-05-25T12:09:50.019Z,97483.42
2018-05-25T12:12:17.538Z,97090.81
2018-05-25T12:14:45.113Z,97125.30
2018-05-25T12:17:12.642Z,96878.80
2018-05-25T12:19:40.158Z,96653.61
2018-05-25T12:22:08.104Z,96475.10
2018-05-25T12:24:35.630Z,96654.63
2018-05-25T12:27:03.169Z,96752.00
2018-05-25T12:29:31.069Z,96740.84
2018-05-25T12:31:58.597Z,96784.47
2018-05-25T12:34:26.126Z,96444.67
2018-05-25T12:36:53.687Z,96090.72
2018-05-25T12:39:21.215Z,96444.67
2018-05-25T12:41:48.767Z,96450.76
2018-05-25T12:44:16.319Z,96156.64
2018-05-25T12:46:43.879Z,96358.46
2018-05-25T12:49:11.434Z,95997.41
2018-05-25T12:51:38.953Z,95622.21
2018-05-25T12:54:06.551Z,96144.47
2018-05-25T12:56:34.069Z,95581.65
2018-05-25T12:59:01.586Z,96504.52
2018-05-25T13:01:29.551Z,96371.64
2018-05-25T13:03:57.074Z,96627.23
2018-05-25T13:06:24.598Z,96273.27
2018-05-25T13:08:52.170Z,96376.72
2018-05-25T13:11:19.693Z,96492.34
2018-05-25T13:13:47.218Z,96295.58
2018-05-25T13:16:14.767Z,96878.80
2018-05-25T13:18:42.281Z,96411.20
2018-05-25T13:21:09.836Z,97000.53
2018-05-25T13:23:37.375Z,97118.20
2018-05-25T13:26:05.154Z,96474.09
2018-05-25T13:28:32.689Z,96871.70
2018-05-25T13:31:00.213Z,96713.46
2018-05-25T13:33:27.758Z,96375.70
2018-05-25T13:35:55.273Z,96575.52
2018-05-25T13:38:22.809Z,97152.69
2018-05-25T13:40:50.325Z,97023.86
2018-05-25T13:43:17.910Z,97537.20
2018-05-25T13:45:45.425Z,97652.86
2018-05-25T13:48:12.941Z,97504.73
2018-05-25T13:50:40.481Z,97270.38
2018-05-25T13:53:08.036Z,97179.07
2018-05-25T13:55:35.558Z,96823.01
2018-05-25T13:58:03.111Z,96971.11
2018-05-25T14:00:30.673Z,96545.09
2018-05-25T14:02:58.182Z,96839.23
2018-05-25T14:05:25.712Z,96525.81
2018-05-25T14:07:53.254Z,97262.26
2018-05-25T14:10:20.769Z,97231.82
2018-05-25T14:12:48.537Z,97197.33
2018-05-25T14:15:16.048Z,97026.91
2018-05-25T14:17:43.585Z,97021.83
2018-05-25T14:20:11.124Z,96839.23
2018-05-25T14:22:38.670Z,97009.66
2018-05-25T14:25:06.219Z,97082.70
2018-05-25T14:27:33.745Z,97243.99
2018-05-25T14:30:01.257Z,96826.05
2018-05-25T14:32:28.903Z,97049.22
2018-05-25T14:34:56.426Z,97539.22
2018-05-25T14:37:23.938Z,97392.11
2018-05-25T14:39:51.485Z,97308.92
2018-05-25T14:42:19.007Z,97288.63
2018-05-25T14:44:46.561Z,97455.02
2018-05-25T14:47:14.178Z,97358.63
2018-05-25T14:49:41.713Z,97281.53
2018-05-25T14:52:09.235Z,97043.13
2018-05-25T14:54:36.757Z,96986.33
2018-05-25T14:57:04.298Z,97110.09
2018-05-25T14:59:31.863Z,97153.70
2018-05-25T15:01:59.396Z,97115.16
2018-05-25T15:04:27.381Z,97380.95
2018-05-25T15:06:54.911Z,97482.41
2018-05-25T15:09:22.429Z,97233.84
2018-05-25T15:11:49.961Z,97311.97
2018-05-25T15:14:17.488Z,97460.09
2018-05-25T15:16:45.040Z,97616.33
2018-05-25T15:19:12.549Z,97086.75
2018-05-25T15:21:40.493Z,97330.23
2018-05-25T15:24:08.018Z,97370.81
2018-05-25T15:26:35.535Z,97392.11
2018-05-25T15:29:03.077Z,97381.97
2018-05-25T15:31:30.591Z,97328.20
2018-05-25T15:33:58.162Z,97460.09
2018-05-25T15:36:25.697Z,97404.29
2018-05-25T15:38:53.202Z,97297.77
2018-05-25T15:41:20.766Z,97159.80
2018-05-25T15:43:48.291Z,97559.52
2018-05-25T15:46:15.817Z,97770.55
2018-05-25T15:48:43.364Z,98017.12
2018-05-25T15:51:10.886Z,98332.70
2018-05-25T15:53:38.445Z,98041.47
2018-05-25T15:56:05.971Z,98127.73
2018-05-25T15:58:33.493Z,98068.88
2018-05-25T16:01:01.047Z,97924.78
2018-05-25T16:03:28.565Z,97983.64
2018-05-25T16:05:56.429Z,98039.45
2018-05-25T16:08:24.876Z,98019.15
2018-05-25T16:10:52.402Z,98044.52
2018-05-25T16:13:19.948Z,98254.57
2018-05-25T16:15:47.478Z,98483.92
2018-05-25T16:18:15.198Z,98446.37
2018-05-25T16:20:42.723Z,98372.28
2018-05-25T16:23:10.238Z,98272.84
2018-05-25T16:25:37.786Z,98647.31
2018-05-25T16:28:05.313Z,98585.41
2018-05-25T16:30:33.885Z,98595.55
2018-05-25T16:33:01.415Z,98735.61
2018-05-25T16:35:28.938Z,98835.08
2018-05-25T16:37:56.478Z,98886.84
2018-05-25T16:40:23.993Z,98729.52
2018-05-25T16:42:51.533Z,98578.30
2018-05-25T16:45:19.067Z,98697.05
2018-05-25T16:47:46.609Z,98667.61
2018-05-25T16:50:14.197Z,98610.78
2018-05-25T16:52:41.717Z,98675.73
2018-05-25T16:55:09.233Z,98459.56
2018-05-25T16:57:36.773Z,98648.33
2018-05-25T17:00:04.325Z,98604.69
2018-05-25T17:02:31.846Z,98579.31
2018-05-25T17:04:59.793Z,98417.95
2018-05-25T17:07:27.266Z,98367.22
2018-05-25T17:09:54.786Z,98342.86
2018-05-25T17:12:22.737Z,98290.09
2018-05-25T17:14:50.258Z,98093.22
2018-05-25T17:17:17.795Z,98457.53
2018-05-25T17:19:45.558Z,98339.81
2018-05-25T17:22:13.086Z,98256.59
2018-05-25T17:24:40.597Z,98221.09
2018-05-25T17:27:08.129Z,98313.42
2018-05-25T17:29:35.646Z,98277.91
2018-05-25T17:32:03.185Z,98369.24
2018-05-25T17:34:30.699Z,98218.03
2018-05-25T17:36:58.365Z,98232.24
2018-05-25T17:39:25.869Z,98454.48
2018-05-25T17:41:53.379Z,98419.98
2018-05-25T17:44:20.922Z,98474.78
2018-05-25T17:46:48.429Z,98409.84
2018-05-25T17:49:15.961Z,98438.25
2018-05-25T17:51:43.483Z,98316.47
2018-05-25T17:54:11.033Z,98253.55
2018-05-25T17:56:38.560Z,98252.55
2018-05-25T17:59:06.118Z,98243.41
2018-05-25T18:01:33.625Z,98435.20
2018-05-25T18:04:01.570Z,98372.28
2018-05-25T18:06:29.077Z,98098.30
2018-05-25T18:08:56.699Z,98368.23
2018-05-25T18:11:24.280Z,98330.68
2018-05-25T18:13:51.807Z,98254.57
2018-05-25T18:16:19.322Z,98308.36
2018-05-25T18:18:46.857Z,98293.13
2018-05-25T18:21:14.374Z,98290.09
2018-05-25T18:23:41.917Z,98269.80
2018-05-25T18:26:09.433Z,98190.64
2018-05-25T18:28:36.977Z,98231.23
2018-05-25T18:31:04.510Z,98230.22
2018-05-25T18:33:32.052Z,98264.72
2018-05-25T18:35:59.576Z,98331.69
2018-05-25T18:38:27.294Z,98253.55
2018-05-25T18:40:54.831Z,98432.16
2018-05-25T18:43:22.358Z,98346.91
2018-05-25T18:45:50.012Z,98602.66
2018-05-25T18:48:17.534Z,98541.77
2018-05-25T18:50:45.060Z,98506.25
2018-05-25T18:53:12.603Z,98530.61
2018-05-25T18:55:40.286Z,98534.66
2018-05-25T18:58:07.809Z,98661.52
2018-05-25T19:00:35.326Z,98660.51
2018-05-25T19:03:02.878Z,98752.86
2018-05-25T19:05:30.404Z,98744.75
2018-05-25T19:07:58.377Z,98837.10
2018-05-25T19:10:25.901Z,98891.91
2018-05-25T19:12:53.430Z,98889.88
2018-05-25T19:15:21.102Z,98722.41
2018-05-25T19:17:48.620Z,98968.03
2018-05-25T19:20:16.138Z,99086.79
2018-05-25T19:22:44.025Z,99089.84
2018-05-25T19:25:11.541Z,99169.01
2018-05-25T19:27:39.057Z,99322.28
2018-05-25T19:30:06.594Z,99307.06
2018-05-25T19:32:34.140Z,99435.98
2018-05-25T19:35:01.674Z,99578.09
2018-05-25T19:37:29.218Z,99686.72
2018-05-25T19:39:56.763Z,99761.84
2018-05-25T19:42:24.285Z,99865.41
2018-05-25T19:44:51.846Z,99969.98
2018-05-25T19:47:19.371Z,100039.02
2018-05-25T19:49:46.894Z,100095.88
2018-05-25T19:52:14.441Z,100112.12
2018-05-25T19:54:42.118Z,100162.88
2018-05-25T19:57:09.646Z,100211.62
2018-05-25T19:59:37.171Z,100244.11
2018-05-25T20:02:04.764Z,100277.62
2018-05-25T20:04:32.290Z,100342.60
2018-05-25T20:06:59.811Z,100364.94
2018-05-25T20:09:27.359Z,100363.93
2018-05-25T20:11:54.886Z,100399.47
2018-05-25T20:14:22.439Z,100449.22
2018-05-25T20:16:49.989Z,100499.99
2018-05-25T20:19:17.509Z,100537.56
2018-05-25T20:21:45.279Z,100555.84
2018-05-25T20:24:12.801Z,100598.48
2018-05-25T20:26:40.334Z,100616.77
2018-05-25T20:29:07.999Z,100659.42
2018-05-25T20:31:35.531Z,100634.03
2018-05-25T20:34:03.054Z,100589.35
2018-05-25T20:36:30.633Z,100617.78
2018-05-25T20:38:58.164Z,100589.35
2018-05-25T20:41:25.689Z,100624.89
2018-05-25T20:43:53.638Z,100624.89
2018-05-25T20:46:21.156Z,100610.67
2018-05-25T20:48:48.673Z,100667.55
2018-05-25T20:51:16.225Z,100710.20
2018-05-25T20:53:43.814Z,100645.20
2018-05-25T20:56:11.341Z,100597.48
2018-05-25T20:58:38.872Z,100574.12
2018-05-25T21:01:06.412Z,100712.22
2018-05-25T21:03:33.932Z,100827.99
2018-05-25T21:06:01.503Z,100883.84
2018-05-25T21:08:29.025Z,100929.55
2018-05-25T21:10:56.550Z,100834.09
2018-05-25T21:13:24.099Z,100753.86
2018-05-25T21:15:51.621Z,100777.22
2018-05-25T21:18:19.574Z,100753.86
2018-05-25T21:20:47.097Z,100898.06
2018-05-25T21:23:14.622Z,100931.58
2018-05-25T21:25:42.178Z,100835.10
2018-05-25T21:28:09.737Z,100867.59
2018-05-25T21:30:37.265Z,100876.73
2018-05-25T21:33:04.814Z,100907.20
2018-05-25T21:35:32.462Z,100968.14
2018-05-25T21:37:59.986Z,100970.17
2018-05-25T21:40:27.502Z,100993.53
2018-05-25T21:42:55.061Z,100989.47
2018-05-25T21:45:22.643Z,100990.48
2018-05-25T21:47:50.175Z,100900.09
2018-05-25T21:50:17.697Z,100939.70
2018-05-25T21:52:45.247Z,101010.80
2018-05-25T21:55:12.765Z,101031.11
2018-05-25T21:57:40.314Z,100866.58
2018-05-25T22:00:07.858Z,100673.64
2018-05-25T22:02:35.403Z,100612.70
2018-05-25T22:05:02.948Z,100536.55
2018-05-25T22:07:30.489Z,100499.99
2018-05-25T22:09:58.009Z,100557.88
2018-05-25T22:12:25.550Z,100512.17
2018-05-25T22:14:53.070Z,100549.75
2018-05-25T22:17:20.613Z,100532.48
2018-05-25T22:22:22.122Z,100526.39
2018-05-25T22:24:49.641Z,100592.40
2018-05-25T22:27:17.242Z,100535.53
2018-05-25T22:29:44.791Z,100556.86
2018-05-25T22:32:12.319Z,100601.53
2018-05-25T22:34:39.861Z,100607.63
2018-05-25T22:37:07.384Z,100587.32
2018-05-25T22:39:34.961Z,100600.52
2018-05-25T22:42:01.954Z,100590.37
2018-05-25T22:44:41.410Z,100664.50
2018-05-25T22:47:20.730Z,100624.89
2018-05-25T22:49:59.998Z,100613.72
2018-05-25T22:52:32.498Z,100595.45
2018-05-25T22:55:00.208Z,100655.36
2018-05-25T22:57:27.738Z,100707.15
2018-05-25T22:59:55.262Z,100645.20
2018-05-25T23:02:22.808Z,100669.58
2018-05-25T23:04:50.335Z,100662.47
2018-05-25T23:07:17.890Z,100670.59
2018-05-25T23:09:45.409Z,100736.59
2018-05-25T23:12:13.420Z,100729.48
2018-05-25T23:14:40.945Z,100722.38
2018-05-25T23:17:08.470Z,100751.83
2018-05-25T23:19:36.010Z,100765.03
2018-05-25T23:22:03.529Z,100770.11
2018-05-25T23:24:31.487Z,100741.67
2018-05-25T23:26:59.004Z,100744.72
2018-05-25T23:29:26.533Z,100765.03
2018-05-25T23:31:54.194Z,100753.86
2018-05-25T23:34:21.711Z,100746.75
2018-05-25T23:36:49.224Z,100755.89
2018-05-25T23:39:16.777Z,100719.34
2018-05-25T23:41:44.339Z,100744.72
2018-05-25T23:44:11.892Z,100749.80
2018-05-25T23:46:39.406Z,100727.45
2018-05-25T23:49:06.936Z,100714.25
2018-05-25T23:51:34.491Z,100768.08
2018-05-25T23:54:02.071Z,100739.64
2018-05-25T23:56:30.207Z,100764.02
2018-05-25T23:58:57.733Z,100822.91
